createdAt,value
2023-05-08T00:01:50.648Z,43.75
2023-05-08T00:04:57.010Z,43.57
2023-05-08T00:08:04.197Z,43.43
2023-05-08T00:11:10.348Z,43.33
2023-05-08T00:14:15.848Z,43.17
2023-05-08T00:17:22.045Z,43.37
2023-05-08T00:20:27.218Z,43.38
2023-05-08T00:23:32.723Z,43.00
2023-05-08T00:26:38.062Z,42.89
2023-05-08T00:29:43.387Z,43.18
2023-05-08T00:32:48.959Z,43.27
2023-05-08T00:35:54.877Z,43.33
2023-05-08T00:39:00.334Z,43.53
2023-05-08T00:42:05.985Z,43.58
2023-05-08T00:45:11.168Z,43.47
2023-05-08T00:48:17.300Z,43.60
2023-05-08T00:51:23.435Z,43.56
2023-05-08T00:54:23.243Z,43.01
2023-05-08T00:57:15.849Z,43.28
2023-05-08T01:00:21.634Z,43.67
2023-05-08T01:03:27.890Z,43.47
2023-05-08T01:06:35.049Z,43.29
2023-05-08T01:09:40.927Z,46.07
2023-05-08T01:13:00.045Z,46.03
2023-05-08T01:16:16.558Z,45.79
2023-05-08T01:19:54.707Z,45.78
2023-05-08T01:23:14.613Z,45.86
2023-05-08T01:26:28.451Z,45.77
2023-05-08T01:29:43.435Z,45.70
2023-05-08T01:32:55.205Z,45.44
2023-05-08T01:36:04.891Z,45.06
2023-05-08T01:39:49.598Z,45.00
2023-05-08T01:43:22.731Z,44.54
2023-05-08T01:46:33.792Z,44.65
2023-05-08T01:49:42.887Z,44.55
2023-05-08T01:53:02.526Z,44.80
2023-05-08T01:56:12.732Z,45.00
2023-05-08T01:59:17.939Z,44.94
2023-05-08T02:02:24.269Z,45.00
2023-05-08T02:05:29.643Z,44.75
2023-05-08T02:08:35.149Z,44.78
2023-05-08T02:11:41.215Z,45.09
2023-05-08T02:14:48.990Z,44.88
2023-05-08T02:17:56.152Z,45.47
2023-05-08T02:21:03.693Z,45.61
2023-05-08T02:24:03.978Z,45.12
2023-05-08T02:27:09.235Z,45.52
2023-05-08T02:30:14.058Z,45.32
2023-05-08T02:33:19.783Z,45.07
2023-05-08T02:36:27.330Z,44.80
2023-05-08T02:39:32.304Z,44.63
2023-05-08T02:42:37.127Z,45.38
2023-05-08T02:45:44.932Z,45.69
2023-05-08T02:49:12.632Z,45.37
2023-05-08T02:52:31.821Z,45.17
2023-05-08T02:56:04.848Z,45.32
2023-05-08T02:59:30.319Z,45.20
2023-05-08T03:02:52.141Z,45.10
2023-05-08T03:06:06.912Z,45.06
2023-05-08T03:09:11.552Z,44.97
2023-05-08T03:12:19.736Z,45.33
2023-05-08T03:15:32.559Z,44.79
2023-05-08T03:18:49.005Z,44.30
2023-05-08T03:21:54.088Z,44.67
2023-05-08T03:25:00.720Z,44.31
2023-05-08T03:28:07.899Z,44.55
2023-05-08T03:31:14.617Z,44.33
2023-05-08T03:34:21.563Z,44.31
2023-05-08T03:37:28.210Z,43.93
2023-05-08T03:40:33.442Z,44.04
2023-05-08T03:43:39.692Z,43.76
2023-05-08T03:46:39.692Z,44.01
2023-05-08T03:49:46.541Z,43.55
2023-05-08T03:52:53.432Z,43.40
2023-05-08T03:55:58.426Z,43.43
2023-05-08T03:59:17.341Z,43.35
2023-05-08T04:02:42.229Z,43.31
2023-05-08T04:05:51.487Z,43.19
2023-05-08T04:09:06.168Z,43.35
2023-05-08T04:12:29.238Z,42.38
2023-05-08T04:15:44.015Z,42.62
2023-05-08T04:18:51.822Z,43.06
2023-05-08T04:21:58.829Z,42.91
2023-05-08T04:25:05.139Z,42.68
2023-05-08T04:28:10.692Z,42.43
2023-05-08T04:31:15.586Z,42.10
2023-05-08T04:34:21.838Z,41.79
2023-05-08T04:37:43.409Z,41.85
2023-05-08T04:40:49.683Z,41.58
2023-05-08T04:43:48.903Z,41.71
2023-05-08T04:46:57.072Z,41.10
2023-05-08T04:50:02.826Z,41.11
2023-05-08T04:53:09.819Z,41.67
2023-05-08T04:56:16.559Z,41.69
2023-05-08T04:59:22.106Z,41.82
2023-05-08T05:02:26.717Z,41.69
2023-05-08T05:05:32.015Z,41.99
2023-05-08T05:08:38.861Z,42.04
2023-05-08T05:11:44.708Z,42.11
2023-05-08T05:14:51.192Z,41.62
2023-05-08T05:18:00.463Z,41.54
2023-05-08T05:21:05.934Z,41.54
2023-05-08T05:24:12.501Z,41.58
2023-05-08T05:27:19.279Z,42.12
2023-05-08T05:30:25.439Z,41.67
2023-05-08T05:33:31.102Z,41.34
2023-05-08T05:36:36.360Z,41.24
2023-05-08T05:39:44.925Z,41.23
2023-05-08T05:42:52.384Z,40.79
2023-05-08T05:45:59.820Z,41.13
2023-05-08T05:49:06.196Z,41.89
2023-05-08T05:52:12.548Z,40.00
2023-05-08T05:55:17.560Z,40.09
2023-05-08T05:58:23.719Z,40.67
2023-05-08T06:01:31.655Z,41.87
2023-05-08T06:04:37.183Z,40.88
2023-05-08T06:07:43.761Z,40.22
2023-05-08T06:10:49.413Z,40.81
2023-05-08T06:13:56.503Z,39.98
2023-05-08T06:17:02.753Z,39.81
2023-05-08T06:20:09.136Z,39.96
2023-05-08T06:23:14.500Z,40.47
2023-05-08T06:26:22.725Z,40.80
2023-05-08T06:29:26.648Z,41.42
2023-05-08T06:32:32.341Z,40.94
2023-05-08T06:35:38.139Z,40.08
2023-05-08T06:38:44.756Z,40.06
2023-05-08T06:41:50.961Z,40.70
2023-05-08T06:45:00.906Z,40.04
2023-05-08T06:47:59.635Z,40.99
2023-05-08T06:51:06.504Z,40.91
2023-05-08T06:54:14.582Z,40.95
2023-05-08T06:57:21.409Z,40.57
2023-05-08T07:00:27.721Z,40.61
2023-05-08T07:03:33.113Z,40.69
2023-05-08T07:06:39.823Z,40.41
2023-05-08T07:09:45.731Z,40.19
2023-05-08T07:12:54.800Z,40.47
2023-05-08T07:15:59.472Z,40.11
2023-05-08T07:19:04.692Z,41.05
2023-05-08T07:22:12.175Z,40.05
2023-05-08T07:25:19.707Z,40.00
2023-05-08T07:28:25.972Z,39.78
2023-05-08T07:31:31.357Z,39.60
2023-05-08T07:34:37.271Z,39.87
2023-05-08T07:37:42.454Z,40.69
2023-05-08T07:40:47.532Z,39.62
2023-05-08T07:43:53.502Z,40.27
2023-05-08T07:46:59.850Z,40.29
2023-05-08T07:50:04.654Z,40.05
2023-05-08T07:53:10.997Z,39.56
2023-05-08T07:56:17.629Z,39.59
2023-05-08T07:59:23.218Z,40.18
2023-05-08T08:02:31.406Z,39.65
2023-05-08T08:05:37.912Z,38.89
2023-05-08T08:08:37.271Z,40.32
2023-05-08T08:11:24.512Z,38.92
2023-05-08T08:14:18.199Z,39.96
2023-05-08T08:17:20.192Z,39.20
2023-05-08T08:20:26.509Z,38.94
2023-05-08T08:23:33.364Z,39.98
2023-05-08T08:26:44.149Z,39.46
2023-05-08T08:29:49.776Z,39.20
2023-05-08T08:32:56.033Z,39.58
2023-05-08T08:36:02.579Z,39.15
2023-05-08T08:39:10.995Z,38.99
2023-05-08T08:42:16.076Z,38.44
2023-05-08T08:45:22.653Z,38.01
2023-05-08T08:48:28.659Z,39.30
2023-05-08T08:52:10.539Z,39.19
2023-05-08T08:55:16.821Z,38.75
2023-05-08T08:58:47.661Z,37.97
2023-05-08T09:01:58.260Z,39.03
2023-05-08T09:05:05.398Z,38.57
2023-05-08T09:08:11.862Z,39.12
2023-05-08T09:11:22.073Z,39.00
2023-05-08T09:14:27.911Z,38.79
2023-05-08T09:17:32.881Z,38.55
2023-05-08T09:20:39.234Z,39.04
2023-05-08T09:23:37.966Z,38.26
2023-05-08T09:26:50.324Z,38.20
2023-05-08T09:32:38.221Z,38.69
2023-05-08T09:35:52.490Z,38.51
2023-05-08T09:38:58.536Z,38.42
2023-05-08T09:42:17.180Z,38.63
2023-05-08T09:45:25.532Z,38.19
2023-05-08T09:48:30.607Z,37.83
2023-05-08T09:51:39.437Z,38.07
2023-05-08T09:54:45.894Z,37.90
2023-05-08T09:57:55.546Z,37.48
2023-05-08T10:01:01.168Z,37.61
2023-05-08T10:03:59.688Z,36.85
2023-05-08T10:07:14.306Z,37.04
2023-05-08T10:10:21.473Z,35.56
2023-05-08T10:13:28.622Z,35.92
2023-05-08T10:16:34.116Z,36.55
2023-05-08T10:19:29.831Z,37.05
2023-05-08T10:22:34.895Z,36.38
2023-05-08T10:25:40.799Z,36.75
2023-05-08T10:29:22.576Z,34.53
2023-05-08T10:32:28.284Z,36.00
2023-05-08T10:35:33.976Z,34.99
2023-05-08T10:38:41.180Z,33.97
2023-05-08T10:41:46.877Z,34.89
2023-05-08T10:44:53.459Z,34.50
2023-05-08T10:48:19.174Z,34.79
2023-05-08T10:51:31.667Z,33.74
2023-05-08T10:55:25.039Z,34.17
2023-05-08T10:58:39.459Z,35.45
2023-05-08T11:01:44.361Z,34.54
2023-05-08T11:04:50.783Z,33.37
2023-05-08T11:08:14.154Z,32.34
2023-05-08T11:11:26.799Z,32.06
2023-05-08T11:14:32.762Z,33.24
2023-05-08T11:17:39.559Z,34.12
2023-05-08T11:21:15.421Z,33.15
2023-05-08T11:24:26.638Z,32.36
2023-05-08T11:27:31.854Z,32.41
2023-05-08T11:30:50.827Z,33.16
2023-05-08T11:33:56.742Z,32.74
2023-05-08T11:37:16.639Z,33.74
2023-05-08T11:40:24.542Z,33.84
2023-05-08T11:43:43.338Z,34.29
2023-05-08T11:46:57.379Z,33.43
2023-05-08T11:50:02.969Z,34.33
2023-05-08T11:53:08.428Z,33.52
2023-05-08T11:56:15.087Z,32.31
2023-05-08T11:59:21.890Z,31.56
2023-05-08T12:02:28.419Z,32.00
2023-05-08T12:05:42.040Z,33.18
2023-05-08T12:08:47.571Z,33.12
2023-05-08T12:11:54.420Z,32.95
2023-05-08T12:15:05.804Z,32.33
2023-05-08T12:18:15.186Z,32.50
2023-05-08T12:21:22.264Z,31.71
2023-05-08T12:24:29.973Z,31.55
2023-05-08T12:27:35.297Z,31.90
2023-05-08T12:30:40.995Z,31.76
2023-05-08T12:33:47.795Z,31.92
2023-05-08T12:36:53.847Z,32.39
2023-05-08T12:39:59.587Z,32.14
2023-05-08T12:43:05.392Z,31.83
2023-05-08T12:46:10.653Z,31.61
2023-05-08T12:49:18.244Z,32.61
2023-05-08T12:52:25.897Z,32.41
2023-05-08T12:55:41.266Z,32.16
2023-05-08T12:58:48.723Z,30.54
2023-05-08T13:01:53.497Z,30.98
2023-05-08T13:04:59.017Z,30.86
2023-05-08T13:08:06.111Z,31.55
2023-05-08T13:11:12.638Z,32.05
2023-05-08T13:14:18.060Z,31.84
2023-05-08T13:17:23.376Z,32.34
2023-05-08T13:20:29.967Z,32.53
2023-05-08T13:23:35.305Z,32.84
2023-05-08T13:26:40.856Z,32.63
2023-05-08T13:29:47.453Z,31.90
2023-05-08T13:32:54.843Z,32.68
2023-05-08T13:36:00.832Z,32.70
2023-05-08T13:39:06.235Z,32.95
2023-05-08T13:42:13.511Z,32.73
2023-05-08T13:45:15.815Z,33.26
2023-05-08T13:48:20.820Z,32.73
2023-05-08T13:51:26.859Z,32.94
2023-05-08T13:54:32.641Z,33.42
2023-05-08T13:57:38.372Z,34.37
2023-05-08T14:00:43.650Z,34.50
2023-05-08T14:03:50.123Z,33.76
2023-05-08T14:06:56.320Z,34.79
2023-05-08T14:10:02.152Z,34.15
2023-05-08T14:13:07.956Z,33.38
2023-05-08T14:16:14.831Z,32.40
2023-05-08T14:19:21.335Z,33.22
2023-05-08T14:22:26.706Z,34.47
2023-05-08T14:25:31.718Z,35.06
2023-05-08T14:28:37.486Z,36.70
2023-05-08T14:31:42.474Z,35.83
2023-05-08T14:34:47.629Z,35.57
2023-05-08T14:37:53.471Z,35.58
2023-05-08T14:41:00.238Z,35.34
2023-05-08T14:44:06.559Z,35.84
2023-05-08T14:47:23.997Z,36.29
2023-05-08T14:50:34.530Z,35.84
2023-05-08T14:53:40.633Z,36.24
2023-05-08T14:56:47.859Z,36.09
2023-05-08T14:59:55.248Z,36.01
2023-05-08T15:03:00.548Z,36.40
2023-05-08T15:06:06.170Z,36.45
2023-05-08T15:09:12.029Z,36.39
2023-05-08T15:12:10.311Z,36.26
2023-05-08T15:15:17.180Z,36.33
2023-05-08T15:18:22.115Z,36.54
2023-05-08T15:21:29.659Z,36.36
2023-05-08T15:24:35.272Z,36.56
2023-05-08T15:27:41.098Z,39.14
2023-05-08T15:30:47.107Z,39.50
2023-05-08T15:33:55.150Z,39.95
2023-05-08T15:37:01.860Z,40.02
2023-05-08T15:40:06.928Z,39.99
2023-05-08T15:43:12.532Z,40.51
2023-05-08T15:46:17.263Z,40.68
2023-05-08T15:49:23.066Z,41.31
2023-05-08T15:52:29.729Z,41.37
2023-05-08T15:55:35.188Z,40.56
2023-05-08T15:58:41.905Z,40.77
2023-05-08T16:01:49.835Z,41.02
2023-05-08T16:04:56.472Z,41.29
2023-05-08T16:08:02.190Z,41.42
2023-05-08T16:11:09.220Z,41.10
2023-05-08T16:14:14.825Z,40.94
2023-05-08T16:17:12.747Z,41.34
2023-05-08T16:20:19.220Z,41.38
2023-05-08T16:23:24.886Z,41.35
2023-05-08T16:26:31.129Z,41.45
2023-05-08T16:29:36.295Z,41.92
2023-05-08T16:32:43.006Z,42.27
2023-05-08T16:35:48.582Z,42.43
2023-05-08T16:38:55.338Z,42.63
2023-05-08T16:42:02.990Z,42.79
2023-05-08T16:45:13.455Z,42.89
2023-05-08T16:48:21.641Z,43.20
2023-05-08T16:51:28.511Z,43.56
2023-05-08T16:54:34.912Z,43.77
2023-05-08T16:57:40.410Z,44.06
2023-05-08T17:00:45.933Z,43.96
2023-05-08T17:03:44.401Z,43.77
2023-05-08T17:06:50.385Z,43.93
2023-05-08T17:09:57.707Z,44.24
2023-05-08T17:13:02.288Z,44.61
2023-05-08T17:16:09.797Z,44.84
2023-05-08T17:19:08.429Z,45.08
2023-05-08T17:22:14.169Z,46.45
2023-05-08T17:25:19.256Z,47.83
2023-05-08T17:28:28.271Z,48.06
2023-05-08T17:31:34.525Z,49.22
2023-05-08T17:34:40.915Z,50.04
2023-05-08T17:37:46.221Z,50.61
2023-05-08T17:40:51.738Z,50.80
2023-05-08T17:43:58.376Z,50.60
2023-05-08T17:47:03.239Z,50.40
2023-05-08T17:50:08.221Z,50.55
2023-05-08T17:53:13.926Z,51.64
2023-05-08T17:56:20.699Z,52.63
2023-05-08T17:59:26.612Z,52.35
2023-05-08T18:02:33.539Z,52.21
2023-05-08T18:05:38.982Z,51.80
2023-05-08T18:08:45.591Z,52.20
2023-05-08T18:11:51.785Z,52.87
2023-05-08T18:14:57.426Z,52.79
2023-05-08T18:18:05.347Z,52.73
2023-05-08T18:21:12.097Z,52.13
2023-05-08T18:24:17.877Z,51.83
2023-05-08T18:27:23.559Z,52.10
2023-05-08T18:30:22.608Z,52.37
2023-05-08T18:33:28.173Z,52.26
2023-05-08T18:36:33.976Z,51.79
2023-05-08T18:39:39.397Z,51.45
2023-05-08T18:42:44.926Z,51.91
2023-05-08T18:45:55.521Z,51.38
2023-05-08T18:49:01.518Z,51.16
2023-05-08T18:52:07.620Z,51.10
2023-05-08T18:55:13.545Z,50.62
2023-05-08T18:58:18.873Z,54.35
2023-05-08T19:01:28.565Z,54.83
2023-05-08T19:04:33.743Z,54.66
2023-05-08T19:07:40.050Z,52.58
2023-05-08T19:10:46.829Z,51.98
2023-05-08T19:13:52.609Z,51.77
2023-05-08T19:16:58.726Z,51.31
2023-05-08T19:20:04.818Z,50.36
2023-05-08T19:23:09.804Z,50.33
2023-05-08T19:26:16.432Z,49.85
2023-05-08T19:29:21.643Z,49.72
2023-05-08T19:32:27.271Z,49.34
2023-05-08T19:35:33.353Z,48.52
2023-05-08T19:38:39.864Z,47.48
2023-05-08T19:41:46.649Z,45.45
2023-05-08T19:44:53.391Z,44.84
2023-05-08T19:48:08.197Z,44.50
2023-05-08T19:51:10.899Z,43.65
2023-05-08T19:54:17.591Z,42.59
2023-05-08T19:57:22.681Z,42.46
2023-05-08T20:00:29.666Z,42.38
2023-05-08T20:03:35.293Z,43.03
2023-05-08T20:06:40.566Z,43.69
2023-05-08T20:09:46.074Z,44.20
2023-05-08T20:12:51.740Z,44.79
2023-05-08T20:15:57.339Z,44.92
2023-05-08T20:19:03.380Z,44.61
2023-05-08T20:22:09.227Z,44.28
2023-05-08T20:25:14.842Z,44.23
2023-05-08T20:28:20.131Z,44.18
2023-05-08T20:31:25.568Z,43.72
2023-05-08T20:34:32.136Z,43.55
2023-05-08T20:37:37.817Z,43.29
2023-05-08T20:40:43.798Z,42.81
2023-05-08T20:43:48.986Z,42.41
2023-05-08T20:46:49.049Z,42.09
2023-05-08T20:49:55.154Z,41.98
2023-05-08T20:53:00.691Z,41.84
2023-05-08T20:56:06.170Z,41.31
2023-05-08T20:59:12.076Z,40.86
2023-05-08T21:02:18.539Z,40.63
2023-05-08T21:05:24.042Z,39.84
2023-05-08T21:08:57.967Z,40.09
2023-05-08T21:12:21.638Z,39.95
2023-05-08T21:15:26.848Z,39.48
2023-05-08T21:18:32.869Z,39.65
2023-05-08T21:21:38.939Z,39.42
2023-05-08T21:24:45.982Z,39.42
2023-05-08T21:27:53.378Z,39.49
2023-05-08T21:31:00.486Z,39.13
2023-05-08T21:34:25.031Z,39.17
2023-05-08T21:37:48.771Z,39.50
2023-05-08T21:40:54.720Z,39.73
2023-05-08T21:44:00.522Z,39.39
2023-05-08T21:47:09.608Z,39.00
2023-05-08T21:50:15.456Z,39.09
2023-05-08T21:53:21.226Z,38.57
2023-05-08T21:56:26.224Z,38.01
2023-05-08T21:59:32.885Z,38.22
2023-05-08T22:02:38.431Z,38.46
2023-05-08T22:05:45.456Z,38.31
2023-05-08T22:08:50.271Z,38.31
2023-05-08T22:11:56.492Z,38.50
2023-05-08T22:15:01.912Z,38.76
2023-05-08T22:18:09.163Z,38.65
2023-05-08T22:21:14.024Z,38.27
2023-05-08T22:24:22.287Z,38.04
2023-05-08T22:27:27.503Z,37.63
2023-05-08T22:30:33.392Z,37.60
2023-05-08T22:33:41.075Z,37.75
2023-05-08T22:36:47.801Z,38.15
2023-05-08T22:39:53.071Z,38.59
2023-05-08T22:42:58.611Z,38.13
2023-05-08T22:46:04.253Z,38.17
2023-05-08T22:49:10.775Z,38.42
2023-05-08T22:52:15.964Z,38.83
2023-05-08T22:55:22.587Z,38.81
2023-05-08T22:58:28.364Z,43.18
2023-05-08T23:01:35.515Z,41.34
2023-05-08T23:04:40.779Z,41.89
2023-05-08T23:07:45.600Z,43.92
2023-05-08T23:10:51.313Z,43.85
2023-05-08T23:13:57.604Z,42.01
2023-05-08T23:17:03.114Z,41.90
2023-05-08T23:20:08.175Z,42.06
2023-05-08T23:23:13.636Z,41.79
2023-05-08T23:26:19.090Z,41.71
2023-05-08T23:29:24.402Z,41.61
2023-05-08T23:32:29.988Z,41.28
2023-05-08T23:35:36.336Z,42.04
2023-05-08T23:38:41.959Z,41.88
2023-05-08T23:41:46.651Z,41.91
2023-05-08T23:44:52.544Z,41.73
2023-05-08T23:47:59.452Z,41.60
2023-05-08T23:51:04.412Z,41.83
2023-05-08T23:54:09.896Z,41.93
2023-05-08T23:57:15.939Z,42.39
